createdAt,value
2022-10-01T00:00:16.199Z,77.76
2022-10-01T00:03:09.685Z,77.55
2022-10-01T00:05:45.627Z,77.73
2022-10-01T00:08:22.800Z,77.67
2022-10-01T00:10:59.150Z,77.86
2022-10-01T00:13:41.491Z,78.08
2022-10-01T00:16:14.537Z,78.19
2022-10-01T00:19:00.383Z,78.29
2022-10-01T00:21:40.155Z,78.25
2022-10-01T00:24:14.608Z,78.39
2022-10-01T00:26:53.616Z,78.30
2022-10-01T00:29:27.852Z,78.23
2022-10-01T00:32:05.854Z,78.35
2022-10-01T00:34:40.198Z,78.24
2022-10-01T00:37:38.201Z,78.78
2022-10-01T00:40:16.616Z,78.60
2022-10-01T00:45:42.563Z,78.53
2022-10-01T00:48:18.637Z,78.39
2022-10-01T00:50:56.474Z,78.63
2022-10-01T00:53:34.701Z,78.74
2022-10-01T00:56:14.456Z,78.56
2022-10-01T00:58:48.674Z,78.60
2022-10-01T01:01:25.210Z,78.68
2022-10-01T01:04:04.778Z,78.64
2022-10-01T01:06:46.746Z,78.61
2022-10-01T01:09:27.629Z,78.47
2022-10-01T01:12:23.666Z,78.98
2022-10-01T01:15:21.064Z,78.87
2022-10-01T01:18:27.469Z,78.78
2022-10-01T01:21:30.303Z,78.86
2022-10-01T01:24:17.963Z,78.71
2022-10-01T01:27:34.928Z,79.07
2022-10-01T01:30:11.675Z,78.68
2022-10-01T01:32:53.271Z,78.79
2022-10-01T01:35:36.441Z,78.75
2022-10-01T01:38:21.535Z,78.73
2022-10-01T01:41:02.384Z,78.74
2022-10-01T01:43:41.711Z,78.60
2022-10-01T01:46:23.938Z,78.73
2022-10-01T01:49:04.606Z,78.45
2022-10-01T01:51:48.494Z,78.95
2022-10-01T01:54:23.573Z,78.66
2022-10-01T01:56:57.506Z,78.69
2022-10-01T01:59:31.467Z,78.76
2022-10-01T02:02:07.491Z,78.87
2022-10-01T02:04:44.875Z,78.83
2022-10-01T02:07:53.133Z,78.86
2022-10-01T02:10:37.946Z,78.99
2022-10-01T02:13:45.768Z,79.12
2022-10-01T02:16:25.035Z,79.06
2022-10-01T02:19:08.893Z,79.10
2022-10-01T02:21:47.344Z,79.34
2022-10-01T02:24:52.780Z,79.51
2022-10-01T02:27:36.125Z,79.29
2022-10-01T02:30:18.635Z,79.42
2022-10-01T02:32:55.327Z,79.55
2022-10-01T02:35:28.387Z,79.32
2022-10-01T02:38:21.412Z,79.84
2022-10-01T02:41:01.810Z,79.73
2022-10-01T02:44:08.982Z,79.77
2022-10-01T02:47:08.049Z,79.92
2022-10-01T02:49:45.173Z,80.09
2022-10-01T02:52:39.335Z,79.83
2022-10-01T02:55:21.404Z,79.98
2022-10-01T02:57:59.918Z,80.04
2022-10-01T03:00:41.079Z,80.37
2022-10-01T03:03:10.755Z,80.39
2022-10-01T03:05:42.300Z,80.30
2022-10-01T03:08:21.350Z,80.20
2022-10-01T03:10:51.303Z,80.32
2022-10-01T03:13:27.094Z,80.50
2022-10-01T03:15:59.560Z,79.99
2022-10-01T03:18:31.808Z,80.22
2022-10-01T03:21:11.076Z,80.30
2022-10-01T03:23:43.109Z,80.16
2022-10-01T03:26:18.575Z,80.44
2022-10-01T03:28:51.030Z,80.49
2022-10-01T03:31:22.913Z,80.67
2022-10-01T03:33:53.070Z,80.23
2022-10-01T03:36:28.617Z,80.64
2022-10-01T03:39:01.588Z,80.52
2022-10-01T03:41:35.049Z,80.55
2022-10-01T03:44:12.173Z,80.56
2022-10-01T03:46:44.542Z,80.82
2022-10-01T03:49:15.871Z,80.93
2022-10-01T03:51:50.034Z,80.67
2022-10-01T03:54:33.474Z,80.90
2022-10-01T03:57:11.723Z,80.93
2022-10-01T03:59:54.648Z,80.88
2022-10-01T04:02:28.765Z,80.96
2022-10-01T04:05:02.775Z,81.01
2022-10-01T04:07:42.455Z,81.17
2022-10-01T04:10:20.901Z,81.10
2022-10-01T04:13:01.764Z,80.93
2022-10-01T04:15:35.938Z,81.24
2022-10-01T04:18:13.209Z,81.17
2022-10-01T04:20:47.337Z,81.29
2022-10-01T04:23:28.797Z,81.27
2022-10-01T04:26:05.467Z,81.01
2022-10-01T04:28:41.050Z,80.89
2022-10-01T04:31:36.631Z,80.93
2022-10-01T04:34:39.667Z,80.84
2022-10-01T04:37:18.829Z,80.85
2022-10-01T04:39:54.056Z,80.99
2022-10-01T04:42:28.436Z,80.75
2022-10-01T04:45:03.953Z,81.18
2022-10-01T04:47:51.808Z,80.89
2022-10-01T04:50:23.696Z,80.83
2022-10-01T04:52:59.419Z,80.70
2022-10-01T04:55:30.879Z,80.84
2022-10-01T04:58:07.413Z,81.12
2022-10-01T05:00:39.262Z,81.11
2022-10-01T05:03:19.130Z,80.98
2022-10-01T05:05:50.294Z,81.10
2022-10-01T05:08:25.328Z,81.01
2022-10-01T05:10:55.443Z,81.25
2022-10-01T05:13:32.691Z,81.42
2022-10-01T05:16:04.952Z,81.37
2022-10-01T05:18:45.710Z,81.44
2022-10-01T05:21:25.890Z,81.77
2022-10-01T05:24:02.297Z,81.91
2022-10-01T05:26:47.862Z,81.95
2022-10-01T05:29:29.889Z,81.67
2022-10-01T05:32:04.121Z,81.95
2022-10-01T05:34:49.978Z,81.68
2022-10-01T05:37:41.144Z,82.01
2022-10-01T05:40:23.734Z,82.18
2022-10-01T05:43:08.367Z,81.76
2022-10-01T05:45:46.774Z,82.04
2022-10-01T05:48:30.794Z,82.04
2022-10-01T05:51:08.643Z,82.00
2022-10-01T05:53:54.070Z,82.04
2022-10-01T05:56:40.232Z,82.28
2022-10-01T05:59:17.046Z,82.43
2022-10-01T06:01:51.009Z,82.25
2022-10-01T06:04:27.053Z,82.60
2022-10-01T06:07:08.091Z,82.52
2022-10-01T06:09:49.876Z,82.77
2022-10-01T06:12:42.869Z,82.79
2022-10-01T06:15:23.994Z,82.59
2022-10-01T06:17:56.480Z,82.67
2022-10-01T06:20:38.367Z,82.63
2022-10-01T06:23:16.736Z,82.87
2022-10-01T06:25:58.039Z,82.81
2022-10-01T06:28:34.891Z,83.12
2022-10-01T06:31:05.207Z,83.18
2022-10-01T06:33:36.936Z,83.34
2022-10-01T06:36:16.815Z,83.23
2022-10-01T06:38:55.708Z,83.38
2022-10-01T06:41:33.088Z,83.46
2022-10-01T06:44:13.854Z,83.38
2022-10-01T06:46:50.935Z,83.31
2022-10-01T06:49:33.603Z,83.53
2022-10-01T06:52:31.577Z,83.52
2022-10-01T06:55:16.359Z,83.63
2022-10-01T06:58:10.880Z,83.61
2022-10-01T07:00:50.329Z,83.70
2022-10-01T07:03:39.533Z,83.68
2022-10-01T07:06:20.946Z,83.81
2022-10-01T07:09:09.876Z,83.76
2022-10-01T07:11:55.936Z,83.64
2022-10-01T07:14:36.685Z,83.59
2022-10-01T07:17:25.172Z,83.73
2022-10-01T07:20:08.890Z,83.73
2022-10-01T07:22:41.499Z,83.54
2022-10-01T07:25:27.922Z,83.49
2022-10-01T07:28:22.438Z,83.49
2022-10-01T07:31:09.769Z,83.41
2022-10-01T07:33:49.096Z,83.61
2022-10-01T07:36:33.336Z,83.41
2022-10-01T07:39:07.766Z,83.01
2022-10-01T07:41:59.035Z,83.37
2022-10-01T07:47:27.713Z,83.58
2022-10-01T07:50:05.981Z,83.46
2022-10-01T07:52:49.574Z,83.45
2022-10-01T07:55:27.302Z,83.58
2022-10-01T07:58:11.668Z,82.91
2022-10-01T08:00:43.218Z,83.13
2022-10-01T08:03:16.438Z,83.17
2022-10-01T08:05:58.968Z,82.91
2022-10-01T08:08:37.747Z,82.60
2022-10-01T08:11:15.369Z,82.79
2022-10-01T08:13:59.106Z,82.51
2022-10-01T08:16:31.549Z,82.73
2022-10-01T08:19:09.771Z,82.70
2022-10-01T08:21:44.029Z,82.50
2022-10-01T08:24:17.077Z,82.00
2022-10-01T08:26:58.580Z,82.01
2022-10-01T08:29:38.962Z,81.88
2022-10-01T08:32:51.594Z,81.73
2022-10-01T08:35:22.186Z,81.89
2022-10-01T08:37:57.201Z,81.61
2022-10-01T08:40:26.582Z,81.70
2022-10-01T08:43:33.227Z,81.69
2022-10-01T08:46:15.065Z,81.34
2022-10-01T08:48:57.292Z,81.45
2022-10-01T08:51:47.570Z,81.38
2022-10-01T08:54:36.797Z,81.22
2022-10-01T08:57:13.412Z,80.97
2022-10-01T09:00:03.167Z,80.83
2022-10-01T09:02:45.188Z,80.67
2022-10-01T09:05:51.190Z,80.61
2022-10-01T09:08:47.611Z,80.18
2022-10-01T09:11:30.062Z,79.73
2022-10-01T09:14:09.349Z,79.54
2022-10-01T09:16:52.785Z,79.41
2022-10-01T09:19:48.042Z,79.20
2022-10-01T09:22:32.007Z,79.26
2022-10-01T09:25:25.243Z,78.93
2022-10-01T09:28:23.701Z,78.62
2022-10-01T09:31:29.284Z,78.46
2022-10-01T09:34:17.477Z,78.38
2022-10-01T09:37:18.980Z,78.38
2022-10-01T09:40:05.608Z,77.87
2022-10-01T09:42:34.640Z,78.04
2022-10-01T09:45:03.791Z,77.79
2022-10-01T09:47:34.394Z,78.04
2022-10-01T09:50:06.639Z,77.66
2022-10-01T09:52:39.949Z,77.07
2022-10-01T09:55:27.129Z,76.73
2022-10-01T09:58:18.041Z,76.59
2022-10-01T10:00:49.003Z,75.99
2022-10-01T10:03:28.980Z,76.24
2022-10-01T10:06:10.335Z,76.05
2022-10-01T10:08:45.862Z,76.29
2022-10-01T10:11:25.264Z,76.38
2022-10-01T10:14:02.592Z,76.10
2022-10-01T10:16:37.481Z,75.52
2022-10-01T10:19:24.969Z,75.71
2022-10-01T10:22:32.240Z,75.26
2022-10-01T10:25:20.062Z,75.12
2022-10-01T10:27:55.789Z,74.72
2022-10-01T10:30:26.672Z,74.49
2022-10-01T10:33:05.299Z,74.12
2022-10-01T10:35:34.979Z,74.07
2022-10-01T10:38:04.657Z,74.17
2022-10-01T10:40:47.271Z,73.89
2022-10-01T10:43:34.699Z,73.52
2022-10-01T10:46:04.107Z,73.33
2022-10-01T10:48:41.122Z,72.98
2022-10-01T10:51:23.557Z,72.53
2022-10-01T10:53:52.756Z,72.61
2022-10-01T10:56:25.102Z,72.42
2022-10-01T10:58:54.213Z,72.22
2022-10-01T11:01:43.592Z,72.22
2022-10-01T11:04:32.630Z,72.01
2022-10-01T11:07:02.037Z,71.66
2022-10-01T11:09:45.629Z,71.33
2022-10-01T11:12:34.397Z,70.69
2022-10-01T11:15:11.217Z,70.89
2022-10-01T11:18:10.823Z,70.47
2022-10-01T11:21:19.243Z,70.48
2022-10-01T11:24:38.989Z,70.29
2022-10-01T11:27:44.316Z,70.34
2022-10-01T11:30:36.135Z,69.53
2022-10-01T11:33:23.897Z,69.47
2022-10-01T11:36:11.634Z,69.20
2022-10-01T11:38:43.340Z,68.97
2022-10-01T11:41:32.130Z,68.93
2022-10-01T11:44:27.582Z,68.32
2022-10-01T11:47:19.817Z,68.59
2022-10-01T11:50:18.344Z,68.90
2022-10-01T11:52:52.930Z,69.08
2022-10-01T11:55:43.418Z,68.78
2022-10-01T11:58:48.337Z,68.20
2022-10-01T12:01:20.248Z,68.84
2022-10-01T12:03:54.475Z,68.82
2022-10-01T12:06:37.621Z,68.84
2022-10-01T12:09:45.325Z,68.61
2022-10-01T12:12:23.261Z,68.73
2022-10-01T12:15:14.742Z,68.75
2022-10-01T12:18:09.381Z,68.64
2022-10-01T12:20:44.591Z,68.68
2022-10-01T12:23:30.488Z,68.75
2022-10-01T12:26:23.922Z,68.90
2022-10-01T12:29:12.441Z,68.64
2022-10-01T12:31:51.733Z,68.52
2022-10-01T12:34:33.881Z,68.44
2022-10-01T12:37:27.641Z,68.39
2022-10-01T12:40:34.105Z,68.39
2022-10-01T12:43:21.412Z,68.21
2022-10-01T12:46:14.533Z,68.18
2022-10-01T12:49:28.201Z,68.02
2022-10-01T12:52:19.072Z,67.84
2022-10-01T12:55:08.784Z,67.69
2022-10-01T12:58:01.274Z,67.36
2022-10-01T13:01:27.431Z,67.52
2022-10-01T13:04:35.261Z,67.48
2022-10-01T13:07:40.596Z,67.23
2022-10-01T13:10:49.084Z,67.11
2022-10-01T13:13:34.840Z,67.15
2022-10-01T13:16:17.770Z,67.01
2022-10-01T13:18:57.045Z,67.21
2022-10-01T13:21:40.259Z,67.33
2022-10-01T13:24:33.867Z,67.68
2022-10-01T13:27:24.236Z,67.69
2022-10-01T13:30:08.073Z,67.47
2022-10-01T13:33:01.223Z,67.41
2022-10-01T13:35:36.715Z,67.56
2022-10-01T13:38:30.659Z,67.06
2022-10-01T13:41:05.879Z,66.61
2022-10-01T13:43:35.922Z,66.63
2022-10-01T13:46:09.366Z,66.45
2022-10-01T13:48:47.069Z,66.55
2022-10-01T13:51:16.746Z,66.41
2022-10-01T13:53:55.576Z,66.49
2022-10-01T13:56:37.842Z,66.05
2022-10-01T13:59:26.031Z,66.18
2022-10-01T14:01:54.728Z,66.13
2022-10-01T14:04:44.062Z,66.24
2022-10-01T14:07:22.293Z,66.21
2022-10-01T14:09:55.098Z,66.30
2022-10-01T14:12:50.344Z,66.08
2022-10-01T14:16:01.900Z,66.24
2022-10-01T14:18:36.956Z,66.04
2022-10-01T14:21:41.793Z,65.80
2022-10-01T14:24:42.855Z,65.70
2022-10-01T14:27:30.766Z,65.77
2022-10-01T14:30:20.790Z,65.83
2022-10-01T14:32:55.838Z,65.69
2022-10-01T14:35:33.890Z,65.67
2022-10-01T14:38:12.086Z,65.84
2022-10-01T14:40:46.997Z,66.02
2022-10-01T14:43:26.486Z,65.75
2022-10-01T14:45:59.007Z,65.87
2022-10-01T14:48:34.349Z,65.87
2022-10-01T14:51:07.065Z,65.86
2022-10-01T14:53:38.882Z,65.96
2022-10-01T14:56:14.706Z,65.87
2022-10-01T14:58:48.211Z,65.72
2022-10-01T15:01:23.049Z,65.78
2022-10-01T15:03:53.029Z,66.09
2022-10-01T15:06:24.890Z,66.11
2022-10-01T15:08:55.320Z,66.32
2022-10-01T15:11:27.884Z,65.90
2022-10-01T15:14:10.795Z,66.29
2022-10-01T15:16:40.215Z,66.17
2022-10-01T15:19:24.398Z,66.29
2022-10-01T15:21:59.689Z,66.42
2022-10-01T15:24:46.999Z,66.34
2022-10-01T15:27:19.819Z,66.43
2022-10-01T15:30:02.395Z,66.34
2022-10-01T15:32:31.444Z,66.43
2022-10-01T15:35:02.499Z,66.66
2022-10-01T15:37:37.081Z,66.55
2022-10-01T15:40:17.568Z,67.01
2022-10-01T15:43:06.305Z,66.92
2022-10-01T15:45:36.290Z,67.06
2022-10-01T15:48:05.231Z,66.94
2022-10-01T15:50:37.722Z,67.02
2022-10-01T15:53:15.961Z,67.01
2022-10-01T15:55:49.751Z,67.10
2022-10-01T15:58:39.138Z,67.14
2022-10-01T16:01:22.060Z,67.20
2022-10-01T16:04:12.204Z,67.23
2022-10-01T16:06:43.096Z,67.36
2022-10-01T16:09:19.297Z,67.45
2022-10-01T16:12:20.459Z,67.54
2022-10-01T16:15:24.254Z,67.69
2022-10-01T16:17:57.633Z,67.61
2022-10-01T16:20:47.903Z,67.80
2022-10-01T16:23:45.695Z,67.69
2022-10-01T16:26:38.499Z,67.91
2022-10-01T16:29:22.050Z,68.07
2022-10-01T16:32:04.619Z,68.10
2022-10-01T16:34:33.480Z,68.10
2022-10-01T16:37:03.024Z,68.21
2022-10-01T16:39:31.590Z,68.32
2022-10-01T16:42:22.899Z,68.37
2022-10-01T16:44:52.201Z,68.42
2022-10-01T16:47:21.130Z,68.60
2022-10-01T16:49:53.327Z,68.69
2022-10-01T16:52:22.190Z,68.68
2022-10-01T16:54:51.053Z,68.76
2022-10-01T16:57:19.991Z,68.82
2022-10-01T17:00:02.852Z,68.86
2022-10-01T17:02:31.709Z,68.97
2022-10-01T17:05:01.081Z,68.97
2022-10-01T17:07:45.174Z,69.06
2022-10-01T17:10:15.903Z,69.15
2022-10-01T17:12:48.040Z,69.18
2022-10-01T17:15:31.176Z,69.28
2022-10-01T17:18:00.202Z,69.38
2022-10-01T17:20:30.734Z,69.29
2022-10-01T17:22:59.742Z,69.41
2022-10-01T17:25:42.921Z,69.47
2022-10-01T17:28:20.442Z,69.53
2022-10-01T17:30:50.337Z,69.51
2022-10-01T17:33:20.598Z,69.58
2022-10-01T17:35:52.240Z,69.86
2022-10-01T17:38:22.104Z,69.85
2022-10-01T17:41:04.632Z,70.02
2022-10-01T17:43:33.379Z,70.04
2022-10-01T17:46:02.759Z,69.97
2022-10-01T17:48:31.901Z,70.21
2022-10-01T17:51:08.883Z,70.09
2022-10-01T17:53:42.700Z,70.31
2022-10-01T17:56:20.448Z,70.30
2022-10-01T17:58:57.799Z,70.43
2022-10-01T18:01:27.881Z,70.52
2022-10-01T18:03:57.918Z,70.51
2022-10-01T18:06:41.213Z,70.63
2022-10-01T18:09:10.468Z,70.68
2022-10-01T18:11:40.186Z,70.48
2022-10-01T18:14:09.295Z,70.85
2022-10-01T18:16:39.115Z,70.81
2022-10-01T18:22:00.008Z,70.85
2022-10-01T18:24:29.440Z,70.91
2022-10-01T18:26:58.349Z,71.13
2022-10-01T18:29:40.837Z,71.30
2022-10-01T18:32:27.578Z,71.21
2022-10-01T18:35:26.106Z,71.39
2022-10-01T18:38:21.975Z,71.19
2022-10-01T18:41:05.127Z,71.28
2022-10-01T18:43:38.552Z,71.70
2022-10-01T18:46:30.641Z,71.61
2022-10-01T18:49:10.635Z,71.66
2022-10-01T18:52:08.829Z,71.62
2022-10-01T18:55:03.402Z,71.80
2022-10-01T18:58:04.358Z,72.05
2022-10-01T19:01:15.436Z,71.93
2022-10-01T19:04:20.744Z,72.10
2022-10-01T19:07:03.091Z,72.01
2022-10-01T19:09:59.386Z,72.27
2022-10-01T19:13:12.011Z,72.23
2022-10-01T19:16:27.439Z,72.49
2022-10-01T19:18:59.210Z,72.83
2022-10-01T19:21:40.135Z,73.07
2022-10-01T19:24:20.603Z,73.05
2022-10-01T19:27:10.090Z,73.51
2022-10-01T19:29:55.346Z,73.71
2022-10-01T19:32:30.524Z,73.62
2022-10-01T19:35:21.483Z,73.48
2022-10-01T19:37:58.343Z,73.42
2022-10-01T19:40:53.387Z,73.46
2022-10-01T19:43:43.722Z,73.57
2022-10-01T19:46:44.883Z,73.62
2022-10-01T19:49:37.581Z,73.89
2022-10-01T19:52:14.751Z,73.76
2022-10-01T19:55:01.779Z,73.68
2022-10-01T19:57:35.079Z,74.02
2022-10-01T20:00:12.740Z,73.97
2022-10-01T20:03:01.214Z,74.12
2022-10-01T20:05:41.785Z,74.25
2022-10-01T20:08:34.005Z,74.26
2022-10-01T20:11:18.046Z,74.06
2022-10-01T20:14:08.567Z,74.48
2022-10-01T20:16:53.265Z,74.47
2022-10-01T20:19:40.009Z,74.53
2022-10-01T20:22:45.832Z,74.58
2022-10-01T20:25:34.439Z,74.87
2022-10-01T20:28:25.789Z,74.71
2022-10-01T20:31:29.267Z,74.79
2022-10-01T20:34:17.252Z,74.82
2022-10-01T20:37:11.012Z,75.27
2022-10-01T20:39:49.460Z,74.87
2022-10-01T20:42:24.903Z,75.21
2022-10-01T20:44:54.887Z,75.42
2022-10-01T20:47:47.873Z,75.49
2022-10-01T20:50:30.579Z,75.24
2022-10-01T20:53:44.444Z,75.80
2022-10-01T20:56:50.654Z,75.75
2022-10-01T20:59:37.842Z,75.76
2022-10-01T21:02:26.920Z,75.63
2022-10-01T21:05:14.219Z,75.56
2022-10-01T21:08:20.043Z,75.97
2022-10-01T21:11:10.659Z,76.04
2022-10-01T21:13:46.201Z,76.35
2022-10-01T21:16:51.638Z,76.17
2022-10-01T21:19:45.283Z,76.17
2022-10-01T21:22:42.042Z,76.21
2022-10-01T21:25:37.116Z,76.34
2022-10-01T21:28:15.171Z,76.29
2022-10-01T21:31:16.092Z,76.46
2022-10-01T21:33:54.881Z,76.45
2022-10-01T21:36:55.879Z,76.56
2022-10-01T21:39:31.589Z,76.55
2022-10-01T21:42:52.824Z,76.68
2022-10-01T21:45:42.242Z,77.16
2022-10-01T21:48:58.217Z,77.15
2022-10-01T21:52:31.920Z,77.33
2022-10-01T21:55:40.944Z,77.17
2022-10-01T21:59:01.156Z,77.39
2022-10-01T22:02:04.929Z,77.15
2022-10-01T22:05:04.132Z,76.92
2022-10-01T22:08:01.681Z,77.86
2022-10-01T22:10:51.312Z,77.72
2022-10-01T22:13:28.957Z,78.00
2022-10-01T22:16:14.943Z,77.85
2022-10-01T22:18:55.567Z,77.74
2022-10-01T22:21:45.051Z,78.18
2022-10-01T22:24:19.091Z,78.08
2022-10-01T22:26:54.847Z,77.77
2022-10-01T22:29:29.419Z,78.31
2022-10-01T22:32:03.621Z,78.28
2022-10-01T22:34:38.303Z,78.35
2022-10-01T22:37:28.416Z,78.26
2022-10-01T22:40:10.296Z,78.31
2022-10-01T22:42:45.251Z,78.34
2022-10-01T22:45:17.120Z,78.56
2022-10-01T22:48:07.802Z,78.60
2022-10-01T22:51:15.223Z,78.49
2022-10-01T22:54:21.776Z,79.04
2022-10-01T22:57:12.423Z,78.74
2022-10-01T22:59:50.481Z,79.11
2022-10-01T23:02:42.990Z,79.09
2022-10-01T23:05:32.276Z,79.13
2022-10-01T23:08:20.079Z,79.41
2022-10-01T23:11:01.566Z,79.37
2022-10-01T23:13:42.631Z,79.60
2022-10-01T23:16:33.930Z,79.72
2022-10-01T23:19:38.084Z,79.88
2022-10-01T23:22:24.153Z,79.91
2022-10-01T23:25:26.234Z,80.01
2022-10-01T23:28:26.099Z,79.95
2022-10-01T23:31:30.187Z,79.95
2022-10-01T23:34:35.098Z,80.09
2022-10-01T23:37:27.008Z,80.28
2022-10-01T23:40:02.209Z,80.19
2022-10-01T23:42:37.944Z,80.47
2022-10-01T23:45:16.543Z,80.45
2022-10-01T23:48:06.515Z,80.73
2022-10-01T23:50:42.097Z,80.79
2022-10-01T23:53:19.164Z,80.33
2022-10-01T23:56:28.411Z,80.74
2022-10-01T23:59:37.015Z,80.49
